Time;durP1;ratioP1;P1;durP2;ratioP2;P2;SDS_P1;SDS_P2;PMS_P1;PMS_P2;Temp;Humidity;BMP_temperature;BMP_pressure;BME280_temperature;BME280_humidity;BME280_pressure;Samples;Min_cycle;Max_cycle;Signal;HPM_P1;HPM_P2
2023/10/13 00:00:47;;;;;;;8.55;4.50;;;;;;;13.56;100.00;93237.53;2098988;28;20028;-83
2023/10/13 00:01:51;;;;;;;9.45;3.90;;;;;;;13.45;100.00;93236.34;2106064;28;20023;-85
2023/10/13 00:02:52;;;;;;;10.40;5.50;;;;;;;13.52;100.00;93233.44;2110489;28;20023;-83
2023/10/13 00:03:54;;;;;;;9.18;3.97;;;;;;;13.34;100.00;93242.81;2097421;28;20452;-85
2023/10/13 00:05:11;;;;;;;5.93;3.78;;;;;;;13.36;100.00;93239.69;2106332;28;20027;-84
2023/10/13 00:06:12;;;;;;;7.30;3.88;;;;;;;13.42;100.00;93240.63;2100575;28;20063;-83
2023/10/13 00:07:13;;;;;;;10.27;4.45;;;;;;;13.56;100.00;93245.59;2087490;28;20119;-83
2023/10/13 00:08:14;;;;;;;12.07;4.30;;;;;;;13.41;100.00;93247.19;2089756;28;20512;-85
2023/10/13 00:09:15;;;;;;;8.63;4.10;;;;;;;13.34;100.00;93242.03;2096991;28;20122;-84
2023/10/13 00:10:18;;;;;;;9.90;4.20;;;;;;;13.42;100.00;93245.25;2092519;28;20028;-84
2023/10/13 00:11:21;;;;;;;7.07;4.22;;;;;;;13.47;100.00;93244.72;2090277;28;20021;-84
2023/10/13 00:12:23;;;;;;;10.35;5.03;;;;;;;13.38;100.00;93245.34;2094039;28;20436;-85
2023/10/13 00:13:24;;;;;;;9.80;4.30;;;;;;;13.36;100.00;93239.69;2096479;28;20024;-84
2023/10/13 00:14:34;;;;;;;6.60;4.20;;;;;;;13.44;100.00;93243.66;2081253;28;20116;-84
2023/10/13 00:15:57;;;;;;;7.15;3.88;;;;;;;13.44;100.00;93235.59;2095727;28;20020;-83
2023/10/13 00:17:03;;;;;;;4.28;3.35;;;;;;;13.40;100.00;93240.31;2093234;28;20484;-85
2023/10/13 00:18:15;;;;;;;8.25;4.28;;;;;;;13.34;100.00;93236.66;2074908;28;20040;-85
2023/10/13 00:19:17;;;;;;;6.60;3.75;;;;;;;13.39;100.00;93233.47;2075965;28;20086;-84
2023/10/13 00:20:34;;;;;;;7.28;4.07;;;;;;;13.26;100.00;93238.06;2085264;28;20769;-86
2023/10/13 00:21:35;;;;;;;7.82;3.95;;;;;;;13.14;100.00;93233.41;2093870;28;20413;-84
2023/10/13 00:22:39;;;;;;;11.85;4.35;;;;;;;13.20;100.00;93237.81;2089194;28;20025;-84
2023/10/13 00:23:53;;;;;;;9.52;4.30;;;;;;;13.10;100.00;93236.19;2091886;28;20513;-83
2023/10/13 00:24:58;;;;;;;8.60;4.00;;;;;;;13.23;100.00;93237.00;2114820;28;20027;-84
2023/10/13 00:26:02;;;;;;;10.93;4.43;;;;;;;13.08;100.00;93235.88;2097527;28;20031;-85
2023/10/13 00:27:06;;;;;;;9.50;4.30;;;;;;;13.01;100.00;93246.81;2082976;28;20515;-84
2023/10/13 00:28:10;;;;;;;10.60;4.63;;;;;;;13.22;100.00;93238.19;2106562;28;20028;-85
2023/10/13 00:29:28;;;;;;;7.03;3.75;;;;;;;13.26;100.00;93238.81;2092581;28;20067;-84
2023/10/13 00:31:38;;;;;;;6.63;3.85;;;;;;;13.26;100.00;93232.72;2098504;28;20052;-84
2023/10/13 00:32:42;;;;;;;9.75;4.05;;;;;;;13.18;100.00;93234.06;2090061;28;20021;-85
2023/10/13 00:33:46;;;;;;;9.50;5.05;;;;;;;13.13;100.00;93230.00;2080751;28;20417;-84
2023/10/13 00:34:47;;;;;;;11.98;5.07;;;;;;;13.22;100.00;93226.66;2091512;28;20033;-83
2023/10/13 00:35:51;;;;;;;7.88;4.35;;;;;;;13.13;100.00;93229.25;2095222;28;20106;-85
2023/10/13 00:38:17;;;;;;;8.23;4.28;;;;;;;13.20;100.00;93226.31;2100794;28;20092;-87
2023/10/13 00:39:18;;;;;;;9.63;4.25;;;;;;;13.16;100.00;93231.03;2089720;28;20456;-85
2023/10/13 00:44:28;;;;;;;7.97;4.32;;;;;;;13.07;100.00;93229.75;2080245;28;20053;-85
2023/10/13 00:45:33;;;;;;;6.45;4.38;;;;;;;13.08;100.00;93225.91;2080078;28;20021;-84
2023/10/13 00:46:38;;;;;;;9.43;4.22;;;;;;;13.08;100.00;93227.81;2071702;28;20450;-86
2023/10/13 00:47:39;;;;;;;5.90;3.85;;;;;;;13.08;100.00;93219.75;2055776;28;20030;-85
2023/10/13 00:48:51;;;;;;;7.63;4.25;;;;;;;13.05;100.00;93221.38;2057679;28;20027;-85
2023/10/13 00:49:53;;;;;;;9.38;4.55;;;;;;;12.94;100.00;93230.91;2092590;28;20025;-85
2023/10/13 00:51:02;;;;;;;7.78;4.10;;;;;;;12.92;100.00;93230.59;2089041;28;20025;-86
2023/10/13 00:52:04;;;;;;;8.65;4.30;;;;;;;13.04;100.00;93227.19;2080849;28;20037;-86
2023/10/13 00:53:05;;;;;;;9.13;5.43;;;;;;;12.95;100.00;93227.06;2089580;28;20039;-86
2023/10/13 00:54:13;;;;;;;9.75;4.40;;;;;;;12.92;100.00;93226.00;2094617;28;20024;-85
2023/10/13 00:55:17;;;;;;;8.18;4.30;;;;;;;12.83;100.00;93223.94;2089885;28;20432;-86
2023/10/13 00:56:18;;;;;;;7.85;4.47;;;;;;;12.85;100.00;93226.19;2089697;28;20032;-84
2023/10/13 00:57:32;;;;;;;12.65;4.22;;;;;;;12.85;100.00;93224.25;2099866;28;20059;-85
2023/10/13 00:58:39;;;;;;;10.60;4.68;;;;;;;12.96;100.00;93228.56;2095390;28;20024;-86
2023/10/13 00:59:45;;;;;;;10.52;4.53;;;;;;;13.18;100.00;93218.72;2090051;28;20490;-85
2023/10/13 01:00:55;;;;;;;13.23;4.65;;;;;;;12.87;100.00;93215.03;2085542;28;20091;-84
2023/10/13 01:01:56;;;;;;;7.22;4.10;;;;;;;12.90;100.00;93224.91;2096731;28;20093;-85
2023/10/13 01:03:05;;;;;;;10.93;4.72;;;;;;;12.96;100.00;93223.97;2101298;28;20048;-84
2023/10/13 01:04:08;;;;;;;12.85;5.20;;;;;;;12.97;100.00;93225.44;2092479;28;20033;-84
2023/10/13 01:05:09;;;;;;;10.63;4.50;;;;;;;12.89;100.00;93218.78;2080729;28;20025;-85
2023/10/13 01:06:12;;;;;;;7.07;4.35;;;;;;;12.94;100.00;93220.94;2094331;28;20032;-86
2023/10/13 01:07:15;;;;;;;17.85;4.50;;;;;;;12.68;100.00;93222.81;2085252;28;20104;-85
2023/10/13 01:08:16;;;;;;;8.88;4.38;;;;;;;12.79;100.00;93231.34;2098424;28;20508;-84
2023/10/13 01:09:18;;;;;;;8.70;4.57;;;;;;;12.72;100.00;93222.72;2113029;28;20024;-84
2023/10/13 01:10:25;;;;;;;9.98;4.97;;;;;;;12.74;100.00;93228.44;2103111;28;20501;-84
2023/10/13 01:11:29;;;;;;;10.95;5.25;;;;;;;12.74;100.00;93223.06;2083077;28;20120;-84
2023/10/13 01:12:30;;;;;;;10.80;4.55;;;;;;;12.80;100.00;93224.03;2090999;28;20032;-87
2023/10/13 01:13:33;;;;;;;8.77;4.40;;;;;;;12.84;100.00;93222.75;2081679;28;20029;-85
2023/10/13 01:14:35;;;;;;;14.10;5.43;;;;;;;12.69;100.00;93216.31;2089299;28;20032;-86
2023/10/13 01:15:36;;;;;;;6.60;4.57;;;;;;;12.83;100.00;93218.56;2095945;28;20023;-84
2023/10/13 01:16:43;;;;;;;9.85;5.18;;;;;;;12.94;100.00;93220.94;2095237;28;20021;-85
2023/10/13 01:17:45;;;;;;;7.75;4.57;;;;;;;12.67;100.00;93220.56;2100750;28;20028;-85
2023/10/13 01:18:49;;;;;;;8.13;4.53;;;;;;;12.66;100.00;93216.41;2108791;28;20026;-88
2023/10/13 01:19:50;;;;;;;7.63;4.15;;;;;;;12.59;100.00;93222.69;2104670;28;20024;-85
2023/10/13 01:20:58;;;;;;;10.30;4.60;;;;;;;12.66;100.00;93222.50;2083738;28;20032;-83
2023/10/13 01:22:04;;;;;;;11.40;4.95;;;;;;;12.73;100.00;93219.63;2103539;28;20035;-85
2023/10/13 01:23:18;;;;;;;9.80;4.50;;;;;;;12.72;100.00;93223.47;2102228;28;20052;-87
2023/10/13 01:24:23;;;;;;;9.55;4.03;;;;;;;12.79;100.00;93225.22;2098240;28;20111;-86
2023/10/13 01:25:28;;;;;;;9.48;4.93;;;;;;;12.83;100.00;93223.94;2100729;28;20028;-87
2023/10/13 01:26:29;;;;;;;10.20;4.78;;;;;;;12.79;100.00;93219.84;2101718;28;20020;-87
2023/10/13 01:27:30;;;;;;;7.40;4.32;;;;;;;12.77;100.00;93212.22;2082682;28;20022;-86
2023/10/13 01:28:44;;;;;;;10.43;4.80;;;;;;;12.68;100.00;93222.81;2096856;28;20033;-86
2023/10/13 01:29:48;;;;;;;12.50;4.70;;;;;;;12.71;100.00;93218.53;2097670;28;20054;-87
2023/10/13 01:30:52;;;;;;;8.73;4.35;;;;;;;12.69;100.00;93212.88;2099770;28;20488;-87
2023/10/13 01:32:45;;;;;;;13.02;4.65;;;;;;;12.75;100.00;93219.19;2089129;28;20032;-85
2023/10/13 01:33:46;;;;;;;5.93;3.60;;;;;;;12.68;100.00;93217.47;2091018;28;20020;-85
2023/10/13 01:34:49;;;;;;;9.10;4.45;;;;;;;12.76;100.00;93218.00;2078968;28;20060;-86
2023/10/13 01:35:50;;;;;;;10.23;4.95;;;;;;;12.70;100.00;93214.38;2087587;28;20112;-85
2023/10/13 01:36:55;;;;;;;7.72;4.25;;;;;;;12.82;100.00;93216.31;2098366;28;20032;-84
2023/10/13 01:37:56;;;;;;;10.45;4.93;;;;;;;12.89;100.00;93215.34;2081453;28;20029;-87
2023/10/13 01:39:01;;;;;;;6.68;4.00;;;;;;;12.80;100.00;93219.41;2077664;28;20029;-85
2023/10/13 01:40:03;;;;;;;10.73;5.07;;;;;;;12.62;100.00;93221.09;2082296;28;20022;-86
2023/10/13 01:41:05;;;;;;;10.43;4.28;;;;;;;12.53;100.00;93211.75;2101053;28;20024;-85
2023/10/13 01:42:06;;;;;;;12.00;5.15;;;;;;;12.45;100.00;93210.44;2102594;28;20400;-86
2023/10/13 01:43:10;;;;;;;16.52;5.50;;;;;;;12.54;100.00;93215.19;2089232;28;20128;-86
2023/10/13 01:44:11;;;;;;;7.22;4.20;;;;;;;12.44;100.00;93211.63;2080156;28;20661;-84
2023/10/13 01:45:13;;;;;;;10.45;4.32;;;;;;;12.48;100.00;93212.28;2094097;28;20036;-84
2023/10/13 01:46:15;;;;;;;9.25;3.85;;;;;;;12.54;100.00;93207.13;2093212;28;20025;-86
2023/10/13 01:47:17;;;;;;;11.07;4.28;;;;;;;12.58;100.00;93211.22;2072829;28;20028;-86
2023/10/13 01:48:21;;;;;;;11.82;4.68;;;;;;;12.54;100.00;93207.88;2089049;28;20401;-86
2023/10/13 01:49:23;;;;;;;11.52;4.07;;;;;;;12.45;100.00;93212.38;2106065;28;20035;-85
2023/10/13 01:50:30;;;;;;;7.75;4.25;;;;;;;12.52;100.00;93210.25;2110981;28;20460;-85
2023/10/13 01:51:31;;;;;;;9.38;4.18;;;;;;;12.50;100.00;93212.59;2099361;28;20050;-85
2023/10/13 01:52:32;;;;;;;7.70;4.32;;;;;;;12.45;100.00;93202.41;2082399;28;20772;-86
2023/10/13 01:53:33;;;;;;;7.40;4.07;;;;;;;12.44;100.00;93208.94;2087807;28;20044;-87
2023/10/13 01:54:34;;;;;;;9.73;4.70;;;;;;;12.60;100.00;93211.56;2090431;28;20021;-85
2023/10/13 01:55:39;;;;;;;7.50;4.43;;;;;;;12.56;100.00;93208.22;2089728;28;20052;-86
2023/10/13 01:56:43;;;;;;;5.15;3.83;;;;;;;12.39;100.00;93208.72;2089399;28;20025;-87
2023/10/13 01:57:47;;;;;;;10.70;4.45;;;;;;;12.50;100.00;93206.47;2090088;28;20474;-85
2023/10/13 01:58:48;;;;;;;7.93;4.18;;;;;;;12.44;100.00;93205.50;2080493;28;20091;-86
2023/10/13 01:59:50;;;;;;;11.05;4.68;;;;;;;12.36;100.00;93204.94;2084895;28;20489;-85
2023/10/13 02:00:51;;;;;;;12.95;4.80;;;;;;;12.32;100.00;93202.34;2104934;28;20408;-86
2023/10/13 02:01:55;;;;;;;7.88;4.43;;;;;;;12.31;100.00;93205.47;2109647;28;20032;-85
2023/10/13 02:02:58;;;;;;;8.02;4.45;;;;;;;12.21;100.00;93198.47;2089984;28;20374;-86
2023/10/13 02:04:06;;;;;;;9.50;4.68;;;;;;;12.28;100.00;93203.63;2084654;28;20056;-87
2023/10/13 02:05:07;;;;;;;10.75;4.93;;;;;;;12.33;100.00;93200.41;2099017;28;20423;-86
2023/10/13 02:06:10;;;;;;;6.90;5.20;;;;;;;12.31;100.00;93200.09;2091892;28;20060;-86
2023/10/13 02:07:14;;;;;;;8.38;4.47;;;;;;;12.46;100.00;93203.13;2081750;28;20059;-84
2023/10/13 02:08:23;;;;;;;11.07;5.00;;;;;;;12.38;100.00;93202.59;2097028;28;20099;-86
2023/10/13 02:09:27;;;;;;;6.35;4.00;;;;;;;12.44;100.00;93202.81;2102451;28;20024;-86
2023/10/13 02:10:30;;;;;;;7.22;4.30;;;;;;;12.43;100.00;93198.66;2087754;28;20051;-85
2023/10/13 02:11:32;;;;;;;10.43;4.10;;;;;;;12.29;100.00;93197.09;2080929;28;20556;-88
2023/10/13 02:12:42;;;;;;;9.15;4.22;;;;;;;12.25;100.00;93201.81;2095316;28;20533;-85
2023/10/13 02:13:48;;;;;;;10.35;4.40;;;;;;;12.29;100.00;93197.84;2111779;28;20019;-86
2023/10/13 02:14:49;;;;;;;8.75;4.03;;;;;;;12.25;100.00;93202.56;2098045;28;20027;-86
2023/10/13 02:15:56;;;;;;;10.43;4.30;;;;;;;12.21;100.00;93195.78;2087054;28;20032;-86
2023/10/13 02:17:12;;;;;;;7.40;4.65;;;;;;;12.30;100.00;93198.59;2082242;28;20358;-87
2023/10/13 02:18:27;;;;;;;10.80;4.85;;;;;;;12.23;100.00;93196.84;2097080;28;20036;-86
2023/10/13 02:19:28;;;;;;;7.57;4.10;;;;;;;12.01;100.00;93196.66;2088449;28;20025;-85
2023/10/13 02:20:30;;;;;;;8.57;4.10;;;;;;;12.13;100.00;93197.16;2089110;28;20028;-86
2023/10/13 02:23:38;;;;;;;7.97;4.22;;;;;;;11.07;100.00;93200.03;2139144;27;20189;-81
2023/10/13 02:24:42;;;;;;;9.45;4.40;;;;;;;11.31;100.00;93197.97;2121056;28;20055;-81
2023/10/13 02:25:45;;;;;;;9.15;4.65;;;;;;;11.29;100.00;93205.66;2105282;28;20530;-81
2023/10/13 02:26:46;;;;;;;9.80;4.43;;;;;;;10.98;100.00;93202.53;2104537;28;20024;-82
2023/10/13 02:27:58;;;;;;;7.25;4.20;;;;;;;11.24;100.00;93200.06;2103946;28;20054;-82
2023/10/13 02:29:04;;;;;;;9.27;4.38;;;;;;;10.78;100.00;93204.50;2105672;28;20031;-82
2023/10/13 02:30:12;;;;;;;7.30;4.00;;;;;;;10.82;100.00;93203.25;2097696;28;20083;-82
2023/10/13 02:31:14;;;;;;;10.55;4.45;;;;;;;10.63;100.00;93201.38;2112795;27;20047;-81
2023/10/13 02:32:23;;;;;;;8.73;4.75;;;;;;;10.66;100.00;93203.19;2112636;28;20016;-81
2023/10/13 02:33:30;;;;;;;10.25;5.03;;;;;;;10.69;100.00;93196.28;2112661;28;20016;-83
2023/10/13 02:34:31;;;;;;;7.97;3.88;;;;;;;10.66;100.00;93202.44;2110231;28;20116;-82
2023/10/13 02:35:43;;;;;;;9.80;4.68;;;;;;;10.62;100.00;93186.47;2096436;28;20116;-82
2023/10/13 02:36:48;;;;;;;10.35;4.95;;;;;;;10.41;100.00;93194.97;2121131;28;20023;-82
2023/10/13 02:37:55;;;;;;;10.25;4.53;;;;;;;10.52;100.00;93193.56;2112169;28;20031;-81
2023/10/13 02:38:58;;;;;;;8.75;4.50;;;;;;;10.57;100.00;93192.31;2102447;28;20021;-82
2023/10/13 02:40:00;;;;;;;10.25;4.80;;;;;;;10.57;100.00;93187.72;2112820;28;20080;-83
2023/10/13 02:41:07;;;;;;;8.98;4.28;;;;;;;10.52;100.00;93182.13;2104223;28;20128;-83
2023/10/13 02:42:08;;;;;;;8.95;4.43;;;;;;;10.38;100.00;93187.75;2115336;27;20024;-82
2023/10/13 02:43:10;;;;;;;8.13;4.50;;;;;;;10.41;100.00;93184.28;2121062;28;20024;-82
2023/10/13 02:44:16;;;;;;;8.77;4.00;;;;;;;10.47;100.00;93187.94;2104201;28;20045;-82
2023/10/13 02:45:25;;;;;;;8.52;4.57;;;;;;;10.51;100.00;93185.97;2121001;28;20035;-82
2023/10/13 02:46:29;;;;;;;6.90;4.15;;;;;;;10.47;100.00;93175.34;2105264;28;20024;-82
2023/10/13 02:47:31;;;;;;;10.90;4.28;;;;;;;10.33;100.00;93178.31;2107811;28;20110;-82
2023/10/13 02:48:45;;;;;;;8.75;4.18;;;;;;;10.29;100.00;93181.03;2104452;28;20073;-82
2023/10/13 02:49:47;;;;;;;6.90;3.95;;;;;;;10.21;100.00;93176.97;2116101;27;20020;-82
2023/10/13 02:50:57;;;;;;;9.32;4.57;;;;;;;10.18;100.00;93179.72;2112117;28;20028;-81
2023/10/13 02:52:03;;;;;;;6.05;4.15;;;;;;;10.10;100.00;93179.09;2111686;27;20409;-83
2023/10/13 02:53:12;;;;;;;6.15;4.05;;;;;;;10.02;100.00;93175.06;2112931;28;20024;-83
2023/10/13 02:54:18;;;;;;;11.32;4.63;;;;;;;10.03;100.00;93177.31;2105898;28;20069;-82
2023/10/13 02:55:25;;;;;;;10.45;4.50;;;;;;;10.16;100.00;93176.72;2105803;28;20558;-82
2023/10/13 02:56:46;;;;;;;8.75;4.20;;;;;;;10.09;100.00;93169.56;2102186;28;20028;-83
2023/10/13 02:57:49;;;;;;;8.32;4.00;;;;;;;10.13;100.00;93169.50;2106766;28;20024;-81
2023/10/13 02:58:56;;;;;;;6.55;4.35;;;;;;;10.05;100.00;93176.88;2103894;28;20077;-81
2023/10/13 03:00:11;;;;;;;7.65;4.10;;;;;;;10.06;100.00;93165.06;2114365;27;20035;-81
2023/10/13 03:01:18;;;;;;;7.50;3.72;;;;;;;9.88;100.00;93164.63;2119311;27;20023;-82
2023/10/13 03:02:27;;;;;;;10.43;5.10;;;;;;;9.92;100.00;93159.97;2119118;28;20464;-81
2023/10/13 03:03:29;;;;;;;8.43;4.38;;;;;;;10.02;100.00;93159.03;2113379;28;20027;-82
2023/10/13 03:04:31;;;;;;;7.80;4.35;;;;;;;9.97;100.00;93156.84;2109988;28;20048;-82
2023/10/13 03:05:35;;;;;;;7.53;4.15;;;;;;;10.01;100.00;93155.63;2112063;28;20119;-83
2023/10/13 03:06:39;;;;;;;11.82;4.30;;;;;;;9.97;100.00;93162.94;2104751;28;20411;-83
2023/10/13 03:07:44;;;;;;;7.88;4.80;;;;;;;9.82;100.00;93162.44;2108262;28;20145;-82
2023/10/13 03:08:46;;;;;;;10.85;4.45;;;;;;;9.80;100.00;93164.78;2116476;27;20371;-81
2023/10/13 03:09:55;;;;;;;11.00;4.38;;;;;;;9.82;100.00;93159.75;2112622;27;20115;-82
2023/10/13 03:10:56;;;;;;;8.10;4.20;;;;;;;9.81;100.00;93160.19;2106216;28;20032;-81
2023/10/13 03:11:57;;;;;;;8.68;4.45;;;;;;;9.68;100.00;93165.34;2104176;28;20392;-81
2023/10/13 03:12:59;;;;;;;10.68;4.60;;;;;;;9.70;100.00;93154.25;2110576;28;20425;-82
2023/10/13 03:14:06;;;;;;;6.38;3.97;;;;;;;9.79;100.00;93159.84;2116115;27;20023;-82
2023/10/13 03:15:17;;;;;;;13.00;4.45;;;;;;;9.81;100.00;93162.84;2113236;28;20096;-82
2023/10/13 03:16:21;;;;;;;9.38;4.43;;;;;;;9.72;100.00;93160.72;2111621;28;20107;-81
2023/10/13 03:17:40;;;;;;;9.25;4.18;;;;;;;9.80;100.00;93161.34;2103193;28;20059;-81
2023/10/13 03:18:53;;;;;;;7.95;3.83;;;;;;;9.78;100.00;93155.66;2106304;28;20084;-82
2023/10/13 03:19:55;;;;;;;8.45;4.20;;;;;;;9.66;100.00;93153.56;2112303;28;20056;-83
2023/10/13 03:20:59;;;;;;;9.73;4.72;;;;;;;9.72;100.00;93158.03;2095214;28;20033;-81
2023/10/13 03:23:09;;;;;;;7.47;4.15;;;;;;;9.39;100.00;93149.06;2112894;28;20088;-82
2023/10/13 03:24:13;;;;;;;10.30;4.43;;;;;;;9.40;100.00;93155.19;2120214;28;20110;-82
2023/10/13 03:25:29;;;;;;;5.07;3.97;;;;;;;9.25;100.00;93154.66;2112776;28;20024;-82
2023/10/13 03:26:35;;;;;;;11.38;4.47;;;;;;;9.23;100.00;93156.97;2097796;28;20028;-82
2023/10/13 03:28:00;;;;;;;7.07;3.92;;;;;;;9.35;100.00;93151.06;2099984;28;20020;-82
2023/10/13 03:29:02;;;;;;;6.07;4.40;;;;;;;9.30;100.00;93154.19;2112266;28;20392;-82
2023/10/13 03:30:10;;;;;;;7.22;4.10;;;;;;;9.38;100.00;93144.91;2112443;28;20028;-82
2023/10/13 03:31:17;;;;;;;6.78;4.38;;;;;;;9.34;100.00;93154.88;2104268;28;20056;-81
2023/10/13 03:32:18;;;;;;;13.27;4.82;;;;;;;9.32;100.00;93151.88;2097118;28;20048;-81
2023/10/13 03:33:29;;;;;;;13.45;5.38;;;;;;;9.36;100.00;93141.16;2095442;28;20082;-83
2023/10/13 03:34:30;;;;;;;13.63;4.85;;;;;;;9.26;100.00;93143.59;2101584;28;20111;-83
2023/10/13 03:35:41;;;;;;;10.10;4.55;;;;;;;9.31;100.00;93145.78;2098348;28;20386;-81
2023/10/13 03:36:58;;;;;;;7.88;4.60;;;;;;;9.44;100.00;93142.50;2091415;28;20033;-82
2023/10/13 03:38:00;;;;;;;12.88;4.68;;;;;;;9.25;100.00;93143.97;2092361;28;20469;-82
2023/10/13 03:39:07;;;;;;;7.85;4.13;;;;;;;9.33;100.00;93148.03;2089646;28;20112;-81
2023/10/13 03:41:24;;;;;;;7.50;4.18;;;;;;;9.22;100.00;93139.44;2114770;28;20114;-82
2023/10/13 03:42:25;;;;;;;7.03;4.28;;;;;;;9.20;100.00;93142.53;2106445;28;20055;-81
2023/10/13 03:43:29;;;;;;;7.63;4.35;;;;;;;9.25;100.00;93143.97;2097980;28;20410;-82
2023/10/13 03:44:31;;;;;;;9.52;4.18;;;;;;;9.21;100.00;93144.03;2098654;28;20072;-82
2023/10/13 03:45:48;;;;;;;8.00;4.45;;;;;;;9.29;100.00;93144.69;2098005;28;20051;-81
2023/10/13 03:46:49;;;;;;;7.72;4.95;;;;;;;9.29;100.00;93150.75;2094446;28;20593;-82
2023/10/13 03:47:51;;;;;;;7.45;4.30;;;;;;;9.13;100.00;93142.66;2094973;28;20837;-82
2023/10/13 03:48:54;;;;;;;5.18;4.20;;;;;;;9.23;100.00;93146.31;2090057;28;20163;-82
2023/10/13 03:51:15;;;;;;;8.75;4.90;;;;;;;9.16;100.00;93147.16;2112122;28;20472;-81
2023/10/13 03:52:22;;;;;;;8.77;4.60;;;;;;;9.25;100.00;93149.31;2097721;28;20067;-82
2023/10/13 03:53:25;;;;;;;9.57;4.70;;;;;;;9.17;100.00;93143.34;2108032;27;20318;-82
2023/10/13 03:54:29;;;;;;;9.63;4.43;;;;;;;9.19;100.00;93143.69;2101424;28;20028;-82
2023/10/13 03:55:34;;;;;;;6.38;3.83;;;;;;;9.16;100.00;93147.16;2098659;28;20830;-82
2023/10/13 03:56:38;;;;;;;6.57;4.05;;;;;;;9.22;100.00;93147.44;2091155;28;20064;-81
2023/10/13 03:57:39;;;;;;;8.80;5.00;;;;;;;9.24;100.00;93151.22;2093834;28;20486;-82
2023/10/13 03:58:48;;;;;;;5.90;4.22;;;;;;;9.39;100.00;93143.75;2089944;28;20021;-82
2023/10/13 03:59:49;;;;;;;4.80;3.78;;;;;;;9.30;100.00;93140.84;2092087;28;20025;-82
2023/10/13 04:00:50;;;;;;;6.00;4.28;;;;;;;9.37;100.00;93143.41;2108615;28;20021;-82
2023/10/13 04:03:56;;;;;;;6.22;3.80;;;;;;;9.12;100.00;93143.03;2094793;28;20024;-82
2023/10/13 04:04:29;;;;;;;7.75;3.97;;;;;;;9.27;100.00;93141.69;2093502;28;20032;-82
2023/10/13 04:07:38;;;;;;;8.25;4.72;;;;;;;9.28;100.00;93140.50;2099245;28;20421;-83
2023/10/13 04:12:21;;;;;;;8.85;4.55;;;;;;;9.11;100.00;93144.22;2106555;28;20405;-82
2023/10/13 04:17:15;;;;;;;10.52;4.40;;;;;;;9.06;100.00;93135.50;2106496;28;20020;-82
2023/10/13 04:18:33;;;;;;;7.47;3.90;;;;;;;9.01;100.00;93133.31;2106056;28;20119;-81
2023/10/13 04:20:12;;;;;;;7.60;4.95;;;;;;;8.96;100.00;93141.03;2094095;28;20024;-82
2023/10/13 04:21:18;;;;;;;7.95;4.40;;;;;;;8.98;100.00;93142.13;2105737;28;20125;-82
2023/10/13 04:22:20;;;;;;;9.38;4.30;;;;;;;8.93;100.00;93139.16;2105840;28;20550;-82
2023/10/13 04:23:26;;;;;;;8.93;5.10;;;;;;;8.87;100.00;93136.19;2089914;28;20041;-83
2023/10/13 04:25:51;;;;;;;8.73;4.10;;;;;;;8.96;100.00;93136.44;2099375;28;20028;-82
2023/10/13 04:29:27;;;;;;;10.73;4.75;;;;;;;9.01;100.00;93137.91;2106045;28;20031;-82
2023/10/13 04:30:38;;;;;;;7.28;4.57;;;;;;;9.10;100.00;93126.72;2099445;28;20512;-81
2023/10/13 04:31:59;;;;;;;7.32;4.20;;;;;;;8.97;100.00;93137.94;2100781;28;20132;-83
2023/10/13 04:33:17;;;;;;;8.27;4.30;;;;;;;9.04;100.00;93127.19;2107670;28;20020;-81
2023/10/13 04:34:27;;;;;;;10.15;4.60;;;;;;;9.12;100.00;93124.38;2100133;28;20027;-81
2023/10/13 04:35:35;;;;;;;6.50;4.50;;;;;;;9.16;100.00;93122.41;2100471;28;20489;-81
2023/10/13 04:36:44;;;;;;;9.45;4.57;;;;;;;9.18;100.00;93117.44;2092413;28;20033;-82
2023/10/13 04:38:01;;;;;;;7.35;4.55;;;;;;;9.13;100.00;93124.00;2091666;28;20088;-80
2023/10/13 04:40:11;;;;;;;11.60;5.03;;;;;;;9.14;100.00;93122.84;2098388;28;20021;-81
2023/10/13 04:41:22;;;;;;;11.80;4.95;;;;;;;9.18;100.00;93118.19;2098429;28;20135;-82
2023/10/13 04:42:39;;;;;;;9.93;4.82;;;;;;;9.34;100.00;93117.53;2090539;28;20076;-82
2023/10/13 04:43:55;;;;;;;7.13;4.40;;;;;;;9.28;100.00;93119.16;2100103;28;20146;-81
2023/10/13 04:45:01;;;;;;;8.55;4.07;;;;;;;9.36;100.00;93107.22;2097641;28;20099;-81
2023/10/13 04:47:23;;;;;;;9.23;4.80;;;;;;;9.40;100.00;93113.25;2095965;28;20028;-82
2023/10/13 04:49:49;;;;;;;10.40;5.20;;;;;;;9.42;100.00;93121.59;2101218;28;20106;-81
2023/10/13 04:50:53;;;;;;;8.45;4.70;;;;;;;9.37;100.00;93110.66;2094741;28;20032;-82
2023/10/13 04:52:00;;;;;;;11.98;5.15;;;;;;;9.36;100.00;93115.22;2106588;28;20051;-82
2023/10/13 04:53:02;;;;;;;7.13;4.13;;;;;;;9.42;100.00;93115.50;2107430;28;20024;-81
2023/10/13 04:54:10;;;;;;;7.47;4.40;;;;;;;9.37;100.00;93115.97;2089582;28;20029;-82
2023/10/13 04:55:32;;;;;;;8.75;5.40;;;;;;;9.39;100.00;93108.31;2083433;28;20037;-82
2023/10/13 04:58:10;;;;;;;6.85;4.20;;;;;;;9.42;100.00;93107.50;2103160;28;20052;-83
2023/10/13 05:00:55;;;;;;;10.38;4.70;;;;;;;9.37;100.00;93113.31;2100395;28;20366;-81
2023/10/13 05:46:20;;;;;;;8.40;4.30;;;;;;;8.74;100.00;93113.94;2079958;28;20476;-82
2023/10/13 05:47:12;;;;;;;8.65;4.60;;;;;;;8.71;100.00;93112.06;2067625;28;20026;-82
2023/10/13 05:48:19;;;;;;;9.27;5.30;;;;;;;8.63;100.00;93111.41;2085994;28;20048;-81
2023/10/13 05:49:40;;;;;;;9.32;5.22;;;;;;;8.58;100.00;93114.53;2089330;28;20032;-81
2023/10/13 05:50:57;;;;;;;9.60;4.97;;;;;;;8.70;100.00;93116.66;2094446;28;20060;-80
2023/10/13 05:52:06;;;;;;;13.02;5.13;;;;;;;8.67;100.00;93116.69;2099451;28;20040;-82
2023/10/13 06:28:40;;;;;;;19.15;6.22;;;;;;;9.47;100.00;93104.34;2099588;28;20159;-82
2023/10/13 06:29:41;;;;;;;13.27;5.05;;;;;;;9.52;100.00;93107.31;2097050;28;20032;-82
2023/10/13 06:30:47;;;;;;;14.30;6.03;;;;;;;9.61;100.00;93103.34;2092521;28;20092;-84
2023/10/13 06:31:48;;;;;;;12.10;5.45;;;;;;;9.68;100.00;93108.56;2090150;28;20029;-82
2023/10/13 06:32:50;;;;;;;11.48;5.95;;;;;;;9.64;100.00;93111.28;2104732;28;20047;-82
2023/10/13 06:33:51;;;;;;;12.63;5.07;;;;;;;9.69;100.00;93112.72;2097156;28;20081;-83
2023/10/13 06:35:04;;;;;;;12.75;6.25;;;;;;;9.74;100.00;93112.25;2088670;28;20047;-82
2023/10/13 06:36:09;;;;;;;9.55;5.53;;;;;;;9.80;100.00;93115.97;2098316;28;20020;-83
2023/10/13 06:37:48;;;;;;;12.18;5.88;;;;;;;9.69;100.00;93110.06;2107960;28;20024;-83
2023/10/13 06:38:43;;;;;;;9.85;4.97;;;;;;;9.82;100.00;93110.97;2102634;28;20064;-84
2023/10/13 06:39:46;;;;;;;14.93;5.97;;;;;;;9.85;100.00;93115.50;2104972;28;20017;-83
2023/10/13 06:40:48;;;;;;;14.25;6.10;;;;;;;9.86;100.00;93108.97;2096808;28;20400;-83
2023/10/13 06:41:51;;;;;;;11.13;5.57;;;;;;;9.99;100.00;93112.53;2088842;28;20029;-83
2023/10/13 06:42:55;;;;;;;10.82;5.18;;;;;;;9.99;100.00;93109.88;2085233;28;20509;-83
2023/10/13 06:44:05;;;;;;;17.10;7.07;;;;;;;9.95;100.00;93113.78;2089563;28;20107;-82
2023/10/13 06:45:09;;;;;;;;;;;;;;;10.02;100.00;93114.38;2090405;28;20029;-83
2023/10/13 06:46:16;;;;;;;13.63;6.70;;;;;;;10.07;100.00;93118.50;2099815;28;20550;-83
2023/10/13 06:47:20;;;;;;;10.02;5.60;;;;;;;10.17;100.00;93120.19;2105369;28;20028;-83
2023/10/13 06:48:21;;;;;;;9.60;5.43;;;;;;;10.23;100.00;93115.88;2097027;28;20066;-82
2023/10/13 06:49:23;;;;;;;9.77;6.30;;;;;;;10.24;100.00;93112.06;2096770;28;20524;-83
2023/10/13 06:50:28;;;;;;;13.75;6.75;;;;;;;10.34;100.00;93115.69;2105157;28;20028;-83
2023/10/13 06:51:37;;;;;;;15.85;7.00;;;;;;;10.41;100.00;93112.13;2095980;28;20074;-83
2023/10/13 06:52:38;;;;;;;10.57;6.30;;;;;;;10.39;100.00;93109.84;2090490;28;20568;-84
2023/10/13 06:53:46;;;;;;;15.45;5.85;;;;;;;10.49;100.00;93114.22;2096815;28;20025;-83
2023/10/13 06:55:05;;;;;;;15.23;5.85;;;;;;;10.57;100.00;93115.56;2097593;28;20175;-84
2023/10/13 06:56:07;;;;;;;12.43;5.40;;;;;;;10.64;100.00;93106.66;2093973;28;20016;-84
2023/10/13 06:57:13;;;;;;;12.52;5.45;;;;;;;10.58;100.00;93117.09;2096898;28;20473;-84
2023/10/13 06:58:17;;;;;;;14.90;5.53;;;;;;;10.67;100.00;93110.38;2096508;28;20020;-85
2023/10/13 06:59:18;;;;;;;13.73;6.15;;;;;;;10.75;100.00;93112.50;2092098;28;20548;-84
2023/10/13 07:00:27;;;;;;;10.40;5.35;;;;;;;10.78;100.00;93113.59;2092126;28;20028;-85
2023/10/13 07:01:28;;;;;;;12.88;5.85;;;;;;;10.83;100.00;93113.09;2091659;28;20021;-84